sensor_id;sensor_type;location;lat;lon;timestamp;P1;durP1;ratioP1;P2;durP2;ratioP2
60314;SDS011;46159;42.550;21.904;2022-10-16T00:00:41;28.17;;;20.33;;
60314;SDS011;46159;42.550;21.904;2022-10-16T00:03:07;27.85;;;19.33;;
60314;SDS011;46159;42.550;21.904;2022-10-16T00:05:37;34.22;;;22.27;;
60314;SDS011;46159;42.550;21.904;2022-10-16T00:08:04;31.08;;;19.65;;
60314;SDS011;46159;42.550;21.904;2022-10-16T00:10:30;30.75;;;18.92;;
60314;SDS011;46159;42.550;21.904;2022-10-16T00:12:56;32.55;;;20.02;;
60314;SDS011;46159;42.550;21.904;2022-10-16T00:15:22;40.65;;;23.83;;
60314;SDS011;46159;42.550;21.904;2022-10-16T00:17:48;41.60;;;25.48;;
60314;SDS011;46159;42.550;21.904;2022-10-16T00:20:14;47.70;;;27.50;;
60314;SDS011;46159;42.550;21.904;2022-10-16T00:22:40;41.53;;;25.75;;
60314;SDS011;46159;42.550;21.904;2022-10-16T00:25:06;41.08;;;25.60;;
60314;SDS011;46159;42.550;21.904;2022-10-16T00:27:33;36.70;;;23.85;;
60314;SDS011;46159;42.550;21.904;2022-10-16T00:29:59;39.47;;;24.73;;
60314;SDS011;46159;42.550;21.904;2022-10-16T00:32:25;36.28;;;23.75;;
60314;SDS011;46159;42.550;21.904;2022-10-16T00:34:51;33.50;;;22.95;;
60314;SDS011;46159;42.550;21.904;2022-10-16T00:37:19;31.80;;;21.45;;
60314;SDS011;46159;42.550;21.904;2022-10-16T00:39:46;32.60;;;21.50;;
60314;SDS011;46159;42.550;21.904;2022-10-16T00:42:16;30.23;;;20.63;;
60314;SDS011;46159;42.550;21.904;2022-10-16T00:44:53;31.98;;;20.80;;
60314;SDS011;46159;42.550;21.904;2022-10-16T00:49:58;30.23;;;17.33;;
60314;SDS011;46159;42.550;21.904;2022-10-16T00:52:26;24.85;;;16.17;;
60314;SDS011;46159;42.550;21.904;2022-10-16T00:54:52;30.10;;;15.98;;
60314;SDS011;46159;42.550;21.904;2022-10-16T00:57:19;22.42;;;15.45;;
60314;SDS011;46159;42.550;21.904;2022-10-16T00:59:45;24.45;;;15.20;;
60314;SDS011;46159;42.550;21.904;2022-10-16T01:02:13;20.20;;;13.60;;
60314;SDS011;46159;42.550;21.904;2022-10-16T01:04:41;21.77;;;14.32;;
60314;SDS011;46159;42.550;21.904;2022-10-16T01:07:24;21.67;;;13.90;;
60314;SDS011;46159;42.550;21.904;2022-10-16T01:10:09;22.25;;;13.15;;
60314;SDS011;46159;42.550;21.904;2022-10-16T01:12:48;24.80;;;14.43;;
60314;SDS011;46159;42.550;21.904;2022-10-16T01:15:25;19.85;;;12.55;;
60314;SDS011;46159;42.550;21.904;2022-10-16T01:18:08;20.77;;;13.43;;
60314;SDS011;46159;42.550;21.904;2022-10-16T01:20:42;20.45;;;12.57;;
60314;SDS011;46159;42.550;21.904;2022-10-16T01:23:15;22.88;;;12.52;;
60314;SDS011;46159;42.550;21.904;2022-10-16T01:28:21;22.10;;;13.68;;
60314;SDS011;46159;42.550;21.904;2022-10-16T01:30:47;20.77;;;14.07;;
60314;SDS011;46159;42.550;21.904;2022-10-16T01:35:43;21.17;;;13.88;;
60314;SDS011;46159;42.550;21.904;2022-10-16T01:38:21;21.83;;;14.05;;
60314;SDS011;46159;42.550;21.904;2022-10-16T01:40:52;21.63;;;14.68;;
60314;SDS011;46159;42.550;21.904;2022-10-16T01:43:26;28.15;;;14.90;;
60314;SDS011;46159;42.550;21.904;2022-10-16T01:45:54;26.05;;;16.13;;
60314;SDS011;46159;42.550;21.904;2022-10-16T01:48:20;23.42;;;14.77;;
60314;SDS011;46159;42.550;21.904;2022-10-16T01:50:51;27.67;;;18.42;;
60314;SDS011;46159;42.550;21.904;2022-10-16T01:53:18;33.75;;;19.75;;
60314;SDS011;46159;42.550;21.904;2022-10-16T01:55:44;33.25;;;22.77;;
60314;SDS011;46159;42.550;21.904;2022-10-16T01:58:12;39.80;;;22.98;;
60314;SDS011;46159;42.550;21.904;2022-10-16T02:00:39;32.65;;;20.73;;
60314;SDS011;46159;42.550;21.904;2022-10-16T02:03:07;30.05;;;20.02;;
60314;SDS011;46159;42.550;21.904;2022-10-16T02:05:38;33.97;;;19.42;;
60314;SDS011;46159;42.550;21.904;2022-10-16T02:08:06;28.25;;;17.90;;
60314;SDS011;46159;42.550;21.904;2022-10-16T02:10:32;29.52;;;18.85;;
60314;SDS011;46159;42.550;21.904;2022-10-16T02:13:04;27.73;;;17.48;;
60314;SDS011;46159;42.550;21.904;2022-10-16T02:15:31;27.10;;;16.25;;
60314;SDS011;46159;42.550;21.904;2022-10-16T02:17:58;34.20;;;15.77;;
60314;SDS011;46159;42.550;21.904;2022-10-16T02:20:25;23.45;;;14.55;;
60314;SDS011;46159;42.550;21.904;2022-10-16T02:22:53;24.33;;;15.68;;
60314;SDS011;46159;42.550;21.904;2022-10-16T02:25:53;32.38;;;16.20;;
60314;SDS011;46159;42.550;21.904;2022-10-16T02:28:19;22.80;;;15.88;;
60314;SDS011;46159;42.550;21.904;2022-10-16T02:33:14;23.38;;;14.88;;
60314;SDS011;46159;42.550;21.904;2022-10-16T02:35:41;21.80;;;13.25;;
60314;SDS011;46159;42.550;21.904;2022-10-16T02:38:07;20.90;;;15.40;;
60314;SDS011;46159;42.550;21.904;2022-10-16T02:40:34;20.35;;;14.02;;
60314;SDS011;46159;42.550;21.904;2022-10-16T02:43:00;21.38;;;13.75;;
60314;SDS011;46159;42.550;21.904;2022-10-16T02:45:28;27.92;;;13.38;;
60314;SDS011;46159;42.550;21.904;2022-10-16T02:47:54;25.73;;;13.43;;
60314;SDS011;46159;42.550;21.904;2022-10-16T02:50:21;22.13;;;14.75;;
60314;SDS011;46159;42.550;21.904;2022-10-16T02:52:47;22.75;;;13.60;;
60314;SDS011;46159;42.550;21.904;2022-10-16T02:55:13;19.92;;;14.80;;
60314;SDS011;46159;42.550;21.904;2022-10-16T02:57:39;21.67;;;15.27;;
60314;SDS011;46159;42.550;21.904;2022-10-16T03:00:15;21.23;;;13.48;;
60314;SDS011;46159;42.550;21.904;2022-10-16T03:02:42;25.10;;;13.75;;
60314;SDS011;46159;42.550;21.904;2022-10-16T03:05:08;20.75;;;12.88;;
60314;SDS011;46159;42.550;21.904;2022-10-16T03:07:35;21.08;;;13.32;;
60314;SDS011;46159;42.550;21.904;2022-10-16T03:10:01;21.85;;;13.77;;
60314;SDS011;46159;42.550;21.904;2022-10-16T03:12:27;23.10;;;14.00;;
60314;SDS011;46159;42.550;21.904;2022-10-16T03:14:55;21.77;;;14.10;;
60314;SDS011;46159;42.550;21.904;2022-10-16T03:17:22;25.88;;;13.98;;
60314;SDS011;46159;42.550;21.904;2022-10-16T03:19:48;23.58;;;14.10;;
60314;SDS011;46159;42.550;21.904;2022-10-16T03:22:14;23.75;;;17.00;;
60314;SDS011;46159;42.550;21.904;2022-10-16T03:24:40;20.55;;;14.05;;
60314;SDS011;46159;42.550;21.904;2022-10-16T03:27:06;21.80;;;14.55;;
60314;SDS011;46159;42.550;21.904;2022-10-16T03:29:32;26.15;;;14.95;;
60314;SDS011;46159;42.550;21.904;2022-10-16T03:31:59;21.15;;;14.35;;
60314;SDS011;46159;42.550;21.904;2022-10-16T03:34:25;20.65;;;14.02;;
60314;SDS011;46159;42.550;21.904;2022-10-16T03:36:51;25.50;;;15.18;;
60314;SDS011;46159;42.550;21.904;2022-10-16T03:39:17;25.02;;;15.65;;
60314;SDS011;46159;42.550;21.904;2022-10-16T03:41:44;20.67;;;15.18;;
60314;SDS011;46159;42.550;21.904;2022-10-16T03:44:11;25.95;;;15.10;;
60314;SDS011;46159;42.550;21.904;2022-10-16T03:46:37;22.10;;;14.45;;
60314;SDS011;46159;42.550;21.904;2022-10-16T03:49:03;23.23;;;14.88;;
60314;SDS011;46159;42.550;21.904;2022-10-16T03:51:29;21.08;;;13.93;;
60314;SDS011;46159;42.550;21.904;2022-10-16T03:53:55;25.92;;;14.32;;
60314;SDS011;46159;42.550;21.904;2022-10-16T03:56:22;22.75;;;14.85;;
60314;SDS011;46159;42.550;21.904;2022-10-16T03:58:48;24.55;;;15.73;;
60314;SDS011;46159;42.550;21.904;2022-10-16T04:01:14;27.25;;;16.85;;
60314;SDS011;46159;42.550;21.904;2022-10-16T04:03:40;20.27;;;14.80;;
60314;SDS011;46159;42.550;21.904;2022-10-16T04:06:06;22.20;;;15.82;;
60314;SDS011;46159;42.550;21.904;2022-10-16T04:08:32;20.85;;;13.25;;
60314;SDS011;46159;42.550;21.904;2022-10-16T04:11:00;20.38;;;13.05;;
60314;SDS011;46159;42.550;21.904;2022-10-16T04:13:26;23.67;;;13.38;;
60314;SDS011;46159;42.550;21.904;2022-10-16T04:15:52;20.42;;;13.90;;
60314;SDS011;46159;42.550;21.904;2022-10-16T04:18:18;22.33;;;13.95;;
60314;SDS011;46159;42.550;21.904;2022-10-16T04:20:44;20.40;;;13.30;;
60314;SDS011;46159;42.550;21.904;2022-10-16T04:23:10;17.65;;;13.00;;
60314;SDS011;46159;42.550;21.904;2022-10-16T04:25:36;16.83;;;12.43;;
60314;SDS011;46159;42.550;21.904;2022-10-16T04:28:03;16.92;;;12.55;;
60314;SDS011;46159;42.550;21.904;2022-10-16T04:30:29;16.65;;;12.90;;
60314;SDS011;46159;42.550;21.904;2022-10-16T04:32:55;18.15;;;13.43;;
60314;SDS011;46159;42.550;21.904;2022-10-16T04:35:21;20.88;;;14.25;;
60314;SDS011;46159;42.550;21.904;2022-10-16T04:37:47;20.63;;;13.25;;
60314;SDS011;46159;42.550;21.904;2022-10-16T04:40:13;19.10;;;13.00;;
60314;SDS011;46159;42.550;21.904;2022-10-16T04:42:40;19.55;;;12.88;;
60314;SDS011;46159;42.550;21.904;2022-10-16T04:45:06;19.85;;;13.65;;
60314;SDS011;46159;42.550;21.904;2022-10-16T04:47:33;38.33;;;17.38;;
60314;SDS011;46159;42.550;21.904;2022-10-16T04:49:59;25.55;;;16.35;;
60314;SDS011;46159;42.550;21.904;2022-10-16T04:52:27;26.60;;;16.35;;
60314;SDS011;46159;42.550;21.904;2022-10-16T04:54:53;31.50;;;16.30;;
60314;SDS011;46159;42.550;21.904;2022-10-16T04:57:21;33.28;;;15.48;;
60314;SDS011;46159;42.550;21.904;2022-10-16T04:59:48;37.17;;;16.10;;
60314;SDS011;46159;42.550;21.904;2022-10-16T05:02:14;39.88;;;16.30;;
60314;SDS011;46159;42.550;21.904;2022-10-16T05:04:40;36.67;;;16.67;;
60314;SDS011;46159;42.550;21.904;2022-10-16T05:07:06;25.88;;;14.45;;
60314;SDS011;46159;42.550;21.904;2022-10-16T05:09:32;20.00;;;14.10;;
60314;SDS011;46159;42.550;21.904;2022-10-16T05:11:58;22.08;;;14.48;;
60314;SDS011;46159;42.550;21.904;2022-10-16T05:14:24;17.95;;;12.65;;
60314;SDS011;46159;42.550;21.904;2022-10-16T05:16:50;19.10;;;13.25;;
60314;SDS011;46159;42.550;21.904;2022-10-16T05:19:17;21.05;;;13.20;;
60314;SDS011;46159;42.550;21.904;2022-10-16T05:21:43;18.38;;;12.23;;
60314;SDS011;46159;42.550;21.904;2022-10-16T05:24:09;18.33;;;12.50;;
60314;SDS011;46159;42.550;21.904;2022-10-16T05:26:35;18.15;;;11.93;;
60314;SDS011;46159;42.550;21.904;2022-10-16T05:29:01;14.82;;;10.48;;
60314;SDS011;46159;42.550;21.904;2022-10-16T05:31:28;17.60;;;11.82;;
60314;SDS011;46159;42.550;21.904;2022-10-16T05:33:57;19.10;;;11.88;;
60314;SDS011;46159;42.550;21.904;2022-10-16T05:36:24;33.25;;;18.25;;
60314;SDS011;46159;42.550;21.904;2022-10-16T05:38:50;31.05;;;20.27;;
60314;SDS011;46159;42.550;21.904;2022-10-16T05:41:16;35.50;;;23.45;;
60314;SDS011;46159;42.550;21.904;2022-10-16T05:43:46;71.32;;;29.05;;
60314;SDS011;46159;42.550;21.904;2022-10-16T05:46:12;36.25;;;24.05;;
60314;SDS011;46159;42.550;21.904;2022-10-16T05:48:38;50.35;;;24.77;;
60314;SDS011;46159;42.550;21.904;2022-10-16T05:51:05;51.15;;;22.67;;
60314;SDS011;46159;42.550;21.904;2022-10-16T05:53:33;44.70;;;20.05;;
60314;SDS011;46159;42.550;21.904;2022-10-16T05:55:59;41.30;;;24.50;;
60314;SDS011;46159;42.550;21.904;2022-10-16T05:58:28;37.40;;;21.83;;
60314;SDS011;46159;42.550;21.904;2022-10-16T06:01:01;100.20;;;26.00;;
60314;SDS011;46159;42.550;21.904;2022-10-16T06:03:28;63.10;;;24.27;;
60314;SDS011;46159;42.550;21.904;2022-10-16T06:05:54;48.50;;;27.67;;
60314;SDS011;46159;42.550;21.904;2022-10-16T06:08:21;61.58;;;26.58;;
60314;SDS011;46159;42.550;21.904;2022-10-16T06:10:48;34.58;;;22.40;;
60314;SDS011;46159;42.550;21.904;2022-10-16T06:13:14;35.53;;;25.38;;
60314;SDS011;46159;42.550;21.904;2022-10-16T06:15:41;37.15;;;25.85;;
60314;SDS011;46159;42.550;21.904;2022-10-16T06:18:08;43.47;;;26.15;;
60314;SDS011;46159;42.550;21.904;2022-10-16T06:20:35;39.92;;;26.25;;
60314;SDS011;46159;42.550;21.904;2022-10-16T06:23:01;40.70;;;26.85;;
60314;SDS011;46159;42.550;21.904;2022-10-16T06:25:29;31.98;;;23.67;;
60314;SDS011;46159;42.550;21.904;2022-10-16T06:27:55;32.17;;;23.80;;
60314;SDS011;46159;42.550;21.904;2022-10-16T06:30:21;29.00;;;21.65;;
60314;SDS011;46159;42.550;21.904;2022-10-16T06:32:47;40.75;;;28.02;;
60314;SDS011;46159;42.550;21.904;2022-10-16T06:35:13;29.23;;;21.58;;
60314;SDS011;46159;42.550;21.904;2022-10-16T06:37:39;28.90;;;21.15;;
60314;SDS011;46159;42.550;21.904;2022-10-16T06:40:05;34.90;;;26.20;;
60314;SDS011;46159;42.550;21.904;2022-10-16T06:42:31;30.15;;;24.42;;
60314;SDS011;46159;42.550;21.904;2022-10-16T06:44:58;44.13;;;28.55;;
60314;SDS011;46159;42.550;21.904;2022-10-16T06:47:24;28.77;;;22.05;;
60314;SDS011;46159;42.550;21.904;2022-10-16T06:49:50;33.65;;;23.52;;
60314;SDS011;46159;42.550;21.904;2022-10-16T06:52:16;27.77;;;18.88;;
60314;SDS011;46159;42.550;21.904;2022-10-16T06:54:42;25.17;;;16.52;;
60314;SDS011;46159;42.550;21.904;2022-10-16T06:57:08;25.63;;;19.25;;
60314;SDS011;46159;42.550;21.904;2022-10-16T06:59:34;38.03;;;24.70;;
60314;SDS011;46159;42.550;21.904;2022-10-16T07:02:00;21.10;;;13.90;;
60314;SDS011;46159;42.550;21.904;2022-10-16T07:04:26;18.35;;;14.55;;
60314;SDS011;46159;42.550;21.904;2022-10-16T07:06:52;16.05;;;10.85;;
60314;SDS011;46159;42.550;21.904;2022-10-16T07:09:18;17.35;;;13.25;;
60314;SDS011;46159;42.550;21.904;2022-10-16T07:11:44;18.25;;;13.52;;
60314;SDS011;46159;42.550;21.904;2022-10-16T07:14:17;15.98;;;12.82;;
60314;SDS011;46159;42.550;21.904;2022-10-16T07:16:43;12.63;;;9.95;;
60314;SDS011;46159;42.550;21.904;2022-10-16T07:19:09;18.10;;;10.52;;
60314;SDS011;46159;42.550;21.904;2022-10-16T07:21:37;13.90;;;9.57;;
60314;SDS011;46159;42.550;21.904;2022-10-16T07:24:05;16.13;;;10.15;;
60314;SDS011;46159;42.550;21.904;2022-10-16T07:26:32;14.52;;;10.48;;
60314;SDS011;46159;42.550;21.904;2022-10-16T07:28:59;12.57;;;8.40;;
60314;SDS011;46159;42.550;21.904;2022-10-16T07:31:25;23.95;;;14.15;;
60314;SDS011;46159;42.550;21.904;2022-10-16T07:33:52;18.95;;;13.05;;
60314;SDS011;46159;42.550;21.904;2022-10-16T07:36:19;29.73;;;19.80;;
60314;SDS011;46159;42.550;21.904;2022-10-16T07:38:46;22.48;;;13.90;;
60314;SDS011;46159;42.550;21.904;2022-10-16T07:41:16;21.08;;;15.75;;
60314;SDS011;46159;42.550;21.904;2022-10-16T07:43:46;24.75;;;17.90;;
60314;SDS011;46159;42.550;21.904;2022-10-16T07:46:12;28.63;;;21.05;;
60314;SDS011;46159;42.550;21.904;2022-10-16T07:48:39;21.27;;;16.00;;
60314;SDS011;46159;42.550;21.904;2022-10-16T07:51:06;18.70;;;11.77;;
60314;SDS011;46159;42.550;21.904;2022-10-16T07:53:32;19.58;;;11.95;;
60314;SDS011;46159;42.550;21.904;2022-10-16T07:55:59;21.67;;;14.60;;
60314;SDS011;46159;42.550;21.904;2022-10-16T07:58:26;30.40;;;21.80;;
60314;SDS011;46159;42.550;21.904;2022-10-16T08:00:53;21.90;;;15.73;;
60314;SDS011;46159;42.550;21.904;2022-10-16T08:03:19;15.77;;;11.00;;
60314;SDS011;46159;42.550;21.904;2022-10-16T08:05:48;18.90;;;13.82;;
60314;SDS011;46159;42.550;21.904;2022-10-16T08:08:15;17.95;;;11.15;;
60314;SDS011;46159;42.550;21.904;2022-10-16T08:10:41;10.70;;;6.80;;
60314;SDS011;46159;42.550;21.904;2022-10-16T08:13:08;12.60;;;8.32;;
60314;SDS011;46159;42.550;21.904;2022-10-16T08:15:34;15.98;;;7.05;;
60314;SDS011;46159;42.550;21.904;2022-10-16T08:18:01;14.05;;;8.18;;
60314;SDS011;46159;42.550;21.904;2022-10-16T08:20:28;15.30;;;9.30;;
60314;SDS011;46159;42.550;21.904;2022-10-16T08:22:54;17.73;;;11.57;;
60314;SDS011;46159;42.550;21.904;2022-10-16T08:25:24;18.95;;;13.77;;
60314;SDS011;46159;42.550;21.904;2022-10-16T08:27:50;18.63;;;14.13;;
60314;SDS011;46159;42.550;21.904;2022-10-16T08:30:17;23.08;;;15.88;;
60314;SDS011;46159;42.550;21.904;2022-10-16T08:32:43;20.92;;;15.95;;
60314;SDS011;46159;42.550;21.904;2022-10-16T08:35:09;27.75;;;18.13;;
60314;SDS011;46159;42.550;21.904;2022-10-16T08:37:35;22.13;;;17.67;;
60314;SDS011;46159;42.550;21.904;2022-10-16T08:40:02;24.20;;;16.27;;
60314;SDS011;46159;42.550;21.904;2022-10-16T08:42:35;25.83;;;18.02;;
60314;SDS011;46159;42.550;21.904;2022-10-16T08:50:27;29.67;;;22.98;;
60314;SDS011;46159;42.550;21.904;2022-10-16T08:52:54;24.42;;;15.68;;
60314;SDS011;46159;42.550;21.904;2022-10-16T08:58:13;22.83;;;15.55;;
60314;SDS011;46159;42.550;21.904;2022-10-16T09:00:40;20.98;;;15.10;;
60314;SDS011;46159;42.550;21.904;2022-10-16T09:11:04;21.15;;;14.00;;
60314;SDS011;46159;42.550;21.904;2022-10-16T09:23:46;21.20;;;11.60;;
60314;SDS011;46159;42.550;21.904;2022-10-16T09:26:13;22.30;;;16.50;;
60314;SDS011;46159;42.550;21.904;2022-10-16T09:28:40;17.90;;;11.95;;
60314;SDS011;46159;42.550;21.904;2022-10-16T09:31:12;28.25;;;20.98;;
60314;SDS011;46159;42.550;21.904;2022-10-16T09:33:39;21.08;;;14.35;;
60314;SDS011;46159;42.550;21.904;2022-10-16T09:36:06;17.75;;;11.60;;
60314;SDS011;46159;42.550;21.904;2022-10-16T09:38:35;18.73;;;13.35;;
60314;SDS011;46159;42.550;21.904;2022-10-16T09:41:22;18.08;;;12.35;;
60314;SDS011;46159;42.550;21.904;2022-10-16T09:43:49;14.18;;;9.98;;
60314;SDS011;46159;42.550;21.904;2022-10-16T09:46:32;21.27;;;11.40;;
60314;SDS011;46159;42.550;21.904;2022-10-16T09:49:03;21.20;;;15.20;;
60314;SDS011;46159;42.550;21.904;2022-10-16T09:51:30;29.02;;;21.92;;
60314;SDS011;46159;42.550;21.904;2022-10-16T09:56:33;19.55;;;12.40;;
60314;SDS011;46159;42.550;21.904;2022-10-16T09:59:13;22.85;;;17.40;;
60314;SDS011;46159;42.550;21.904;2022-10-16T10:01:40;14.98;;;9.45;;
60314;SDS011;46159;42.550;21.904;2022-10-16T10:04:07;15.57;;;9.50;;
60314;SDS011;46159;42.550;21.904;2022-10-16T10:09:19;13.15;;;9.15;;
60314;SDS011;46159;42.550;21.904;2022-10-16T10:11:47;19.17;;;11.93;;
60314;SDS011;46159;42.550;21.904;2022-10-16T10:14:24;12.90;;;7.82;;
60314;SDS011;46159;42.550;21.904;2022-10-16T10:16:52;14.23;;;8.13;;
60314;SDS011;46159;42.550;21.904;2022-10-16T10:19:22;13.27;;;9.10;;
60314;SDS011;46159;42.550;21.904;2022-10-16T10:21:49;12.48;;;7.50;;
60314;SDS011;46159;42.550;21.904;2022-10-16T10:24:18;16.10;;;8.13;;
60314;SDS011;46159;42.550;21.904;2022-10-16T10:26:48;14.70;;;8.77;;
60314;SDS011;46159;42.550;21.904;2022-10-16T10:36:42;18.98;;;7.43;;
60314;SDS011;46159;42.550;21.904;2022-10-16T10:50:02;11.65;;;7.53;;
60314;SDS011;46159;42.550;21.904;2022-10-16T10:55:37;10.85;;;6.50;;
60314;SDS011;46159;42.550;21.904;2022-10-16T11:08:02;24.05;;;16.52;;
60314;SDS011;46159;42.550;21.904;2022-10-16T11:10:50;15.63;;;10.88;;
60314;SDS011;46159;42.550;21.904;2022-10-16T11:15:53;14.38;;;7.28;;
60314;SDS011;46159;42.550;21.904;2022-10-16T11:18:22;11.38;;;7.40;;
60314;SDS011;46159;42.550;21.904;2022-10-16T11:20:54;16.75;;;7.18;;
60314;SDS011;46159;42.550;21.904;2022-10-16T11:23:26;10.80;;;7.00;;
60314;SDS011;46159;42.550;21.904;2022-10-16T11:25:55;11.95;;;7.70;;
60314;SDS011;46159;42.550;21.904;2022-10-16T11:28:38;13.73;;;6.75;;
60314;SDS011;46159;42.550;21.904;2022-10-16T11:31:10;10.13;;;6.50;;
60314;SDS011;46159;42.550;21.904;2022-10-16T11:36:25;13.40;;;8.32;;
60314;SDS011;46159;42.550;21.904;2022-10-16T11:43:51;11.95;;;7.35;;
60314;SDS011;46159;42.550;21.904;2022-10-16T11:46:20;11.63;;;7.18;;
60314;SDS011;46159;42.550;21.904;2022-10-16T11:48:48;11.05;;;6.85;;
60314;SDS011;46159;42.550;21.904;2022-10-16T11:51:26;18.75;;;10.73;;
60314;SDS011;46159;42.550;21.904;2022-10-16T11:56:42;14.68;;;7.55;;
60314;SDS011;46159;42.550;21.904;2022-10-16T11:59:28;15.60;;;8.23;;
60314;SDS011;46159;42.550;21.904;2022-10-16T12:02:11;23.67;;;13.27;;
60314;SDS011;46159;42.550;21.904;2022-10-16T12:04:44;21.25;;;14.77;;
60314;SDS011;46159;42.550;21.904;2022-10-16T12:07:13;10.30;;;6.90;;
60314;SDS011;46159;42.550;21.904;2022-10-16T12:09:40;18.17;;;10.40;;
60314;SDS011;46159;42.550;21.904;2022-10-16T12:12:24;15.35;;;9.30;;
60314;SDS011;46159;42.550;21.904;2022-10-16T12:14:59;13.20;;;6.80;;
60314;SDS011;46159;42.550;21.904;2022-10-16T12:17:27;10.82;;;7.22;;
60314;SDS011;46159;42.550;21.904;2022-10-16T12:20:01;10.75;;;6.18;;
60314;SDS011;46159;42.550;21.904;2022-10-16T12:22:47;13.25;;;6.18;;
60314;SDS011;46159;42.550;21.904;2022-10-16T12:27:59;9.45;;;6.00;;
60314;SDS011;46159;42.550;21.904;2022-10-16T12:30:26;12.80;;;6.60;;
60314;SDS011;46159;42.550;21.904;2022-10-16T12:32:53;14.13;;;7.07;;
60314;SDS011;46159;42.550;21.904;2022-10-16T12:35:21;13.68;;;6.40;;
60314;SDS011;46159;42.550;21.904;2022-10-16T12:37:48;12.45;;;7.93;;
60314;SDS011;46159;42.550;21.904;2022-10-16T12:40:26;17.20;;;9.70;;
60314;SDS011;46159;42.550;21.904;2022-10-16T12:42:52;14.45;;;8.30;;
60314;SDS011;46159;42.550;21.904;2022-10-16T12:47:54;16.88;;;9.80;;
60314;SDS011;46159;42.550;21.904;2022-10-16T12:52:49;14.07;;;8.48;;
60314;SDS011;46159;42.550;21.904;2022-10-16T12:55:19;14.55;;;7.95;;
60314;SDS011;46159;42.550;21.904;2022-10-16T13:00:25;12.43;;;7.50;;
60314;SDS011;46159;42.550;21.904;2022-10-16T13:13:59;9.95;;;6.38;;
60314;SDS011;46159;42.550;21.904;2022-10-16T13:19:21;14.07;;;7.20;;
60314;SDS011;46159;42.550;21.904;2022-10-16T13:24:29;12.50;;;6.50;;
60314;SDS011;46159;42.550;21.904;2022-10-16T13:29:32;9.98;;;6.65;;
60314;SDS011;46159;42.550;21.904;2022-10-16T13:31:59;11.30;;;6.63;;
60314;SDS011;46159;42.550;21.904;2022-10-16T13:34:26;12.80;;;6.55;;
60314;SDS011;46159;42.550;21.904;2022-10-16T13:36:52;11.95;;;7.05;;
60314;SDS011;46159;42.550;21.904;2022-10-16T13:39:26;11.10;;;6.70;;
60314;SDS011;46159;42.550;21.904;2022-10-16T13:44:28;12.02;;;6.97;;
60314;SDS011;46159;42.550;21.904;2022-10-16T13:47:00;11.88;;;6.95;;
60314;SDS011;46159;42.550;21.904;2022-10-16T13:49:26;12.95;;;6.13;;
60314;SDS011;46159;42.550;21.904;2022-10-16T13:51:56;12.15;;;5.97;;
60314;SDS011;46159;42.550;21.904;2022-10-16T13:54:22;13.45;;;6.40;;
60314;SDS011;46159;42.550;21.904;2022-10-16T13:56:49;13.60;;;5.90;;
60314;SDS011;46159;42.550;21.904;2022-10-16T14:05:13;7.90;;;4.03;;
60314;SDS011;46159;42.550;21.904;2022-10-16T14:07:39;11.77;;;4.78;;
60314;SDS011;46159;42.550;21.904;2022-10-16T14:10:07;10.63;;;5.47;;
60314;SDS011;46159;42.550;21.904;2022-10-16T14:12:43;10.48;;;4.47;;
60314;SDS011;46159;42.550;21.904;2022-10-16T14:15:16;9.35;;;5.40;;
60314;SDS011;46159;42.550;21.904;2022-10-16T14:17:43;10.68;;;5.78;;
60314;SDS011;46159;42.550;21.904;2022-10-16T14:20:12;9.63;;;5.13;;
60314;SDS011;46159;42.550;21.904;2022-10-16T14:22:41;15.00;;;5.18;;
60314;SDS011;46159;42.550;21.904;2022-10-16T14:28:04;9.38;;;5.20;;
60314;SDS011;46159;42.550;21.904;2022-10-16T14:30:31;14.13;;;6.55;;
60314;SDS011;46159;42.550;21.904;2022-10-16T14:32:59;12.75;;;8.93;;
60314;SDS011;46159;42.550;21.904;2022-10-16T14:35:35;9.40;;;5.45;;
60314;SDS011;46159;42.550;21.904;2022-10-16T14:38:02;7.90;;;4.25;;
60314;SDS011;46159;42.550;21.904;2022-10-16T14:40:33;8.85;;;4.25;;
60314;SDS011;46159;42.550;21.904;2022-10-16T14:43:00;9.15;;;5.00;;
60314;SDS011;46159;42.550;21.904;2022-10-16T14:45:30;10.50;;;3.75;;
60314;SDS011;46159;42.550;21.904;2022-10-16T14:48:00;11.23;;;4.32;;
60314;SDS011;46159;42.550;21.904;2022-10-16T14:50:27;8.52;;;4.10;;
60314;SDS011;46159;42.550;21.904;2022-10-16T14:52:53;10.60;;;5.05;;
60314;SDS011;46159;42.550;21.904;2022-10-16T14:55:19;10.70;;;4.93;;
60314;SDS011;46159;42.550;21.904;2022-10-16T14:57:46;12.00;;;4.07;;
60314;SDS011;46159;42.550;21.904;2022-10-16T15:00:14;7.88;;;4.25;;
60314;SDS011;46159;42.550;21.904;2022-10-16T15:02:41;9.77;;;3.92;;
60314;SDS011;46159;42.550;21.904;2022-10-16T15:05:24;7.80;;;3.83;;
60314;SDS011;46159;42.550;21.904;2022-10-16T15:07:51;11.70;;;4.20;;
60314;SDS011;46159;42.550;21.904;2022-10-16T15:10:21;11.68;;;5.53;;
60314;SDS011;46159;42.550;21.904;2022-10-16T15:12:48;10.20;;;4.50;;
60314;SDS011;46159;42.550;21.904;2022-10-16T15:17:46;9.38;;;5.22;;
60314;SDS011;46159;42.550;21.904;2022-10-16T15:20:13;11.02;;;5.00;;
60314;SDS011;46159;42.550;21.904;2022-10-16T15:22:39;8.88;;;4.97;;
60314;SDS011;46159;42.550;21.904;2022-10-16T15:27:49;13.27;;;5.72;;
60314;SDS011;46159;42.550;21.904;2022-10-16T15:30:15;12.32;;;6.07;;
60314;SDS011;46159;42.550;21.904;2022-10-16T15:32:41;15.30;;;8.65;;
60314;SDS011;46159;42.550;21.904;2022-10-16T15:35:08;11.27;;;5.82;;
60314;SDS011;46159;42.550;21.904;2022-10-16T15:37:34;13.88;;;6.10;;
60314;SDS011;46159;42.550;21.904;2022-10-16T15:40:00;9.95;;;4.63;;
60314;SDS011;46159;42.550;21.904;2022-10-16T15:42:26;19.60;;;6.18;;
60314;SDS011;46159;42.550;21.904;2022-10-16T15:44:52;17.88;;;9.05;;
60314;SDS011;46159;42.550;21.904;2022-10-16T15:47:18;13.20;;;9.13;;
60314;SDS011;46159;42.550;21.904;2022-10-16T15:49:45;10.07;;;5.28;;
60314;SDS011;46159;42.550;21.904;2022-10-16T15:52:11;10.02;;;6.28;;
60314;SDS011;46159;42.550;21.904;2022-10-16T15:54:37;11.23;;;5.95;;
60314;SDS011;46159;42.550;21.904;2022-10-16T15:57:03;13.23;;;6.43;;
60314;SDS011;46159;42.550;21.904;2022-10-16T15:59:29;15.30;;;6.47;;
60314;SDS011;46159;42.550;21.904;2022-10-16T16:01:55;10.05;;;5.15;;
60314;SDS011;46159;42.550;21.904;2022-10-16T16:04:21;11.50;;;5.20;;
60314;SDS011;46159;42.550;21.904;2022-10-16T16:06:48;12.43;;;6.15;;
60314;SDS011;46159;42.550;21.904;2022-10-16T16:09:14;15.38;;;6.82;;
60314;SDS011;46159;42.550;21.904;2022-10-16T16:11:40;12.95;;;5.70;;
60314;SDS011;46159;42.550;21.904;2022-10-16T16:14:07;14.10;;;6.85;;
60314;SDS011;46159;42.550;21.904;2022-10-16T16:16:33;9.82;;;5.80;;
60314;SDS011;46159;42.550;21.904;2022-10-16T16:19:02;13.13;;;6.03;;
60314;SDS011;46159;42.550;21.904;2022-10-16T16:21:29;14.57;;;6.55;;
60314;SDS011;46159;42.550;21.904;2022-10-16T16:23:55;13.55;;;6.30;;
60314;SDS011;46159;42.550;21.904;2022-10-16T16:26:23;13.52;;;6.03;;
60314;SDS011;46159;42.550;21.904;2022-10-16T16:28:52;11.50;;;5.43;;
60314;SDS011;46159;42.550;21.904;2022-10-16T16:31:19;12.68;;;7.05;;